ADDS METAR Data INFO
IDs: Format: Raw Decoded Include TAF

Data at: 2054 UTC 24 Jun 2017

KLHB 242035Z AUTO 13005KT 10SM CLR 26/22 A3005 RMK AO2 T02600222
KLHB 242015Z AUTO 13004KT 10SM CLR 26/22 A3008 RMK AO2 T02580220
KLHB 241955Z AUTO 12004KT 10SM CLR 26/22 A3010 RMK AO2 T02570221
KLHB 241940Z AUTO 00000KT 10SM CLR 26/21 A3010 RMK AO2 T02580214
KLHB 241915Z AUTO 00000KT 7SM CLR 25/22 A3012 RMK AO2 T02540215
KLHB 241855Z AUTO 35003KT 10SM SCT030 26/22 A3013 RMK AO2 T02550217
KLHB 241835Z AUTO 36003KT 10SM SCT026 BKN031 25/22 A3014 RMK AO2 T02530216
KLHB 241815Z AUTO 01007KT 10SM BKN021 OVC027 25/22 A3015 RMK AO2 T02530217
KLHB 241755Z AUTO 02008KT 10SM SCT019 OVC027 25/22 A3015 RMK AO2 60006 T02500219 10268 20210
KLHB 241735Z AUTO 01008KT 10SM OVC023 25/22 A3015 RMK AO2 T02450218
KLHB 241715Z AUTO 36008KT 10SM BKN018 OVC024 25/22 A3016 RMK AO2 T02470218
KLHB 241655Z AUTO 01010G14KT 10SM BKN020 OVC026 25/22 A3016 RMK AO2 T02460219
KLHB 241635Z AUTO 01012G19KT 10SM BKN020 BKN025 25/22 A3015 RMK AO2 T02530218
KLHB 241615Z AUTO 36017G23KT 10SM CLR 27/22 A3013 RMK AO2 LTG DSNT S T02650222
KLHB 241555Z AUTO 35008KT 10SM CLR 26/23 A3010 RMK AO2 LTG DSNT S T02600229
KLHB 241535Z AUTO 33011KT 10SM CLR 25/23 A3008 RMK AO2 LTG DSNT S T02460232
KLHB 241515Z AUTO 32010KT 10SM CLR 23/23 A3006 RMK AO2 LTG DSNT S T02340234
KLHB 241455Z AUTO 30007KT 10SM CLR 23/23 A3005 RMK AO2 LTG DSNT S 60006 T02290229
KLHB 241435Z AUTO 30005KT 10SM SCT120 23/23 A3004 RMK AO2 LTG DSNT SE AND S T02300230
KLHB 241415Z AUTO 28005KT 10SM VCTS BKN120 23/23 A3004 RMK AO2 LTG DSNT SE AND S T02270227
KLHB 241400Z AUTO 27004KT 10SM BKN110 22/22 A3004 RMK AO2 LTG DSNT SE AND NW T02210221
KLHB 241335Z AUTO 30003KT 10SM SCT050 SCT070 OVC095 22/22 A3004 RMK AO2 LTG DSNT E AND SE P0005 T02160216
KLHB 241315Z AUTO 00000KT 3SM +RA SCT038 BKN070 OVC095 22/22 A3005 RMK AO2 LTG DSNT E SE AND W P0005 T02150215
KLHB 241255Z AUTO 02004KT 10SM -RA SCT012 SCT045 OVC095 21/21 A3005 RMK AO2 LTG DSNT E SE AND NW P0001 T02130213
KLHB 241235Z AUTO 36006KT 10SM DZ SCT012 OVC095 21/21 A3005 RMK AO2 LTG DSNT E S AND W P0001 T02130213
KLHB 241215Z AUTO 02003KT 10SM RA OVC085 21/21 A3005 RMK AO2 LTG DSNT ALQS T02120212
KLHB 241155Z AUTO 06009KT 10SM -RA SCT037 SCT044 OVC085 21/21 A3005 RMK AO2 LTG DSNT W AND NW P0011 60011 70011 T02100210 10271 20210
KLHB 241135Z AUTO 05009G17KT 10SM -RA SCT042 BKN060 OVC070 21/21 A3005 RMK AO2 LTG DSNT NE AND NW P0008 T02100210
KLHB 241115Z AUTO 04015G21KT 5SM +RA SCT021 BKN038 OVC044 21/21 A3005 RMK AO2 LTG DSNT ALQS P0005 T02140213
KLHB 241055Z AUTO 03016G23KT 10SM SCT009 BKN019 OVC027 24/20 A3003 RMK AO2 LTG DSNT NW T02370199
KLHB 241035Z AUTO 08004KT 7SM OVC009 26/26 A3001 RMK AO2 LTG DSNT N AND NE T02560256
KLHB 241015Z AUTO 07004KT 7SM SCT011 SCT048 OVC100 26/26 A3001 RMK AO2 LTG DSNT N AND NW T02550255
KLHB 240955Z AUTO 00000KT 7SM SCT010 SCT100 25/25 A2999 RMK AO2 LTG DSNT N AND NE T02540254
KLHB 240935Z AUTO 09003KT 7SM SCT012 25/25 A2997 RMK AO2 LTG DSNT N AND NE T02520252
KLHB 240915Z AUTO 09003KT 7SM BKN014 25/25 A2997 RMK AO2 LTG DSNT NW THRU NE T02520252
KLHB 240855Z AUTO 13003KT 7SM OVC014 25/25 A2996 RMK AO2 LTG DSNT N AND NE T02520252
KLHB 240835Z AUTO 13004KT 7SM BKN014 25/25 A2996 RMK AO2 LTG DSNT N AND NE T02530253
KLHB 240815Z AUTO 13005KT 7SM CLR 26/26 A2995 RMK AO2 LTG DSNT N AND NE T02550255
KLHB 240755Z AUTO 13006KT 7SM CLR 26/26 A2994 RMK AO2 T02550255
KLHB 240735Z AUTO 13004KT 7SM CLR 26/25 A2996 RMK AO2 T02570254
KLHB 240715Z AUTO 14004KT 7SM CLR 26/25 A2995 RMK AO2 T02600253
KLHB 240655Z AUTO 13004KT 7SM CLR 26/25 A2996 RMK AO2 LTG DSNT NE T02620252
KLHB 240635Z AUTO 13004KT 7SM CLR 27/25 A2995 RMK AO2 T02650252
KLHB 240615Z AUTO 13004KT 7SM CLR 27/25 A2995 RMK AO2 T02660251
KLHB 240555Z AUTO 14005KT 7SM CLR 27/25 A2994 RMK AO2 T02710251 10335 20270 403580243
KLHB 240535Z AUTO 14006KT 7SM CLR 27/25 A2993 RMK AO2 T02730250
KLHB 240515Z AUTO 13004KT 7SM CLR 28/25 A2993 RMK AO2 T02750248
KLHB 240455Z AUTO 13006KT 7SM CLR 28/25 A2992 RMK AO2 LTG DSNT NE T02780247
KLHB 240435Z AUTO 14005KT 7SM CLR 28/25 A2991 RMK AO2 T02800246
KLHB 240415Z AUTO 14006KT 10SM CLR 29/25 A2990 RMK AO2 T02850246
KLHB 240355Z AUTO 13005KT 10SM CLR 29/25 A2989 RMK AO2 T02900245
KLHB 240335Z AUTO 13005KT 10SM CLR 29/25 A2988 RMK AO2 T02930245
KLHB 240315Z AUTO 12004KT 10SM CLR 30/24 A2987 RMK AO2 T02950243
KLHB 240255Z AUTO 00000KT 10SM CLR 30/24 A2986 RMK AO2 T02970241
KLHB 240235Z AUTO 12004KT 10SM CLR 30/24 A2985 RMK AO2 T03010240
KLHB 240215Z AUTO 12003KT 10SM CLR 30/24 A2984 RMK AO2 T03040238
KLHB 240155Z AUTO 13005KT 10SM CLR 31/24 A2983 RMK AO2 T03070239
KLHB 240135Z AUTO 12004KT 10SM CLR 31/24 A2982 RMK AO2 T03130240
KLHB 240115Z AUTO 12003KT 10SM CLR 32/24 A2982 RMK AO2 T03190241
KLHB 240055Z AUTO 12004KT 10SM CLR 33/24 A2981 RMK AO2 T03250242
KLHB 240035Z AUTO 11006KT 10SM CLR 33/24 A2980 RMK AO2 T03280242
KLHB 240015Z AUTO 12004KT 7SM CLR 33/24 A2980 RMK AO2 T03310244
KLHB 232355Z AUTO 12007KT 10SM CLR 34/24 A2979 RMK AO2 T03350240 10358 20335
KLHB 232335Z AUTO 12008KT 10SM CLR 34/24 A2979 RMK AO2 T03400240
KLHB 232315Z AUTO 14009KT 10SM CLR 34/24 A2979 RMK AO2 T03420240
KLHB 232255Z AUTO 13007KT 10SM CLR 35/24 A2979 RMK AO2 T03450243
KLHB 232235Z AUTO 12007KT 7SM CLR 35/25 A2979 RMK AO2 T03490246
KLHB 232215Z AUTO 12007KT 10SM CLR 35/24 A2980 RMK AO2 T03470243
KLHB 232155Z AUTO 13006KT 5SM HZ CLR 36/24 A2980 RMK AO2 T03550242
KLHB 232135Z AUTO 13007KT 090V160 10SM SCT050 36/24 A2980 RMK AO2 T03550240
KLHB 232115Z AUTO 13009KT 100V160 10SM SCT050 35/24 A2980 RMK AO2 T03540244
KLHB 232055Z AUTO 13005KT 10SM SCT050 35/25 A2980 RMK AO2 T03530247
KLHB 232035Z AUTO 12007G14KT 10SM SCT050 35/24 A2980 RMK AO2 T03510239
KLHB 232015Z AUTO 13009KT 10SM CLR 35/24 A2980 RMK AO2 T03540239
KLHB 231955Z AUTO 14009G14KT 100V160 10SM CLR 35/24 A2980 RMK AO2 T03510238
KLHB 231935Z AUTO 12007G14KT 10SM CLR 35/24 A2980 RMK AO2 T03530243
KLHB 231915Z AUTO 15009KT 10SM CLR 35/24 A2981 RMK AO2 T03500242
KLHB 231855Z AUTO 14010KT 10SM CLR 35/24 A2981 RMK AO2 T03480243
KLHB 231835Z AUTO 17010KT 7SM CLR 34/24 A2982 RMK AO2 T03440241
KLHB 231815Z AUTO 15011G15KT 10SM CLR 34/25 A2983 RMK AO2 T03390246
KLHB 231755Z AUTO 17007KT 7SM CLR 33/24 A2984 RMK AO2 T03330244 10335 20245
KLHB 231735Z AUTO 15006KT 10SM CLR 33/25 A2983 RMK AO2 T03310246
KLHB 231715Z AUTO 15009KT 7SM CLR 33/25 A2982 RMK AO2 T03270248
KLHB 231655Z AUTO 17009KT 7SM SCT033 32/24 A2983 RMK AO2 T03240241
KLHB 231635Z AUTO 15007KT 7SM SCT033 32/25 A2984 RMK AO2 T03190246
KLHB 231615Z AUTO 17008KT 7SM CLR 31/25 A2983 RMK AO2 T03120251
KLHB 231555Z AUTO 16009KT 10SM CLR 31/25 A2983 RMK AO2 T03120252
KLHB 231535Z AUTO 17010KT 10SM SCT023 31/25 A2983 RMK AO2 T03050252
KLHB 231515Z AUTO 16010G14KT 7SM CLR 30/26 A2983 RMK AO2 T03010257
KLHB 231455Z AUTO 17010KT 10SM SCT020 29/26 A2983 RMK AO2 LTG DSNT NE T02890259
KLHB 231435Z AUTO 17009KT 7SM BKN020 29/26 A2983 RMK AO2 T02850261
KLHB 231415Z AUTO 18009G16KT 7SM BKN015 OVC020 28/27 A2983 RMK AO2 T02820266
KLHB 231355Z AUTO 16007KT 7SM OVC015 27/27 A2982 RMK AO2 T02740270
KLHB 231335Z AUTO 14008KT 7SM OVC013 27/27 A2979 RMK AO2 T02650265
KLHB 231315Z AUTO 14005KT 5SM BR OVC013 26/26 A2979 RMK AO2 T02600260
KLHB 231255Z AUTO 14005KT 5SM BR BKN013 26/26 A2979 RMK AO2 T02550255
KLHB 231235Z AUTO 14005KT 5SM BR SCT013 25/25 A2978 RMK AO2 T02500250
KLHB 231215Z AUTO 13005KT 5SM BR SCT013 25/25 A2977 RMK AO2 T02470247
KLHB 231155Z AUTO 13005KT 5SM BR CLR 25/25 A2977 RMK AO2 T02450245 10261 20243
KLHB 231135Z AUTO 13005KT 5SM BR SCT012 24/24 A2976 RMK AO2 T02440244
KLHB 231115Z AUTO 13005KT 5SM BR SCT012 25/25 A2976 RMK AO2 T02450245
KLHB 231055Z AUTO 13004KT 5SM BR CLR 25/25 A2976 RMK AO2 T02450245
KLHB 231035Z AUTO 13006KT 5SM BR CLR 25/25 A2975 RMK AO2 T02450245
KLHB 231015Z AUTO 13006KT 5SM BR CLR 25/25 A2975 RMK AO2 T02460246
KLHB 230955Z AUTO 13006KT 7SM CLR 25/25 A2975 RMK AO2 T02460246
KLHB 230935Z AUTO 13005KT 5SM BR CLR 25/25 A2975 RMK AO2 T02460246
KLHB 230915Z AUTO 13004KT 7SM CLR 25/25 A2975 RMK AO2 T02470247
KLHB 230855Z AUTO 12003KT 7SM SCT011 25/25 A2975 RMK AO2 T02480248


Page loaded:  20:54 UTC  |   01:54 PM Pacific  |   02:54 PM Mountain  |   03:54 PM Central  |   04:54 PM Eastern

 

ADVISORIES

FORECASTS

FORECASTS

OBSERVATIONS

USER TOOLS

ABOUT US